createdAt,value
2022-08-17T00:02:41.797Z,4.93
2022-08-17T00:05:18.668Z,5.22
2022-08-17T00:07:51.075Z,5.15
2022-08-17T00:10:32.262Z,5.03
2022-08-17T00:13:07.269Z,5.18
2022-08-17T00:16:22.584Z,5.28
2022-08-17T00:19:49.374Z,5.75
2022-08-17T00:22:31.288Z,5.03
2022-08-17T00:25:10.724Z,5.63
2022-08-17T00:27:46.641Z,5.38
2022-08-17T00:30:18.783Z,5.68
2022-08-17T00:33:23.222Z,5.53
2022-08-17T00:35:40.754Z,5.72
2022-08-17T00:38:12.762Z,5.40
2022-08-17T00:43:44.284Z,5.72
2022-08-17T00:46:18.197Z,6.05
2022-08-17T00:48:46.562Z,5.97
2022-08-17T00:51:41.809Z,5.13
2022-08-17T00:54:18.488Z,5.45
2022-08-17T00:56:53.929Z,5.85
2022-08-17T00:59:31.733Z,5.25
2022-08-17T01:01:59.628Z,5.32
2022-08-17T01:04:29.651Z,5.47
2022-08-17T01:07:01.740Z,5.50
2022-08-17T01:09:29.441Z,4.60
2022-08-17T01:12:00.359Z,5.15
2022-08-17T01:14:27.710Z,5.82
2022-08-17T01:16:57.289Z,5.47
2022-08-17T01:19:29.435Z,5.43
2022-08-17T01:22:11.722Z,5.43
2022-08-17T01:24:45.827Z,5.18
2022-08-17T01:27:15.086Z,4.90
2022-08-17T01:29:50.021Z,5.00
2022-08-17T01:32:17.945Z,5.00
2022-08-17T01:34:50.921Z,5.00
2022-08-17T01:37:20.197Z,4.75
2022-08-17T01:39:49.368Z,5.57
2022-08-17T01:42:40.317Z,5.00
2022-08-17T01:45:40.932Z,5.15
2022-08-17T01:48:13.017Z,5.47
2022-08-17T01:50:44.673Z,5.10
2022-08-17T01:53:21.180Z,5.53
2022-08-17T01:56:01.324Z,4.90
2022-08-17T01:58:29.439Z,4.88
2022-08-17T02:01:02.769Z,4.90
2022-08-17T02:03:31.416Z,4.70
2022-08-17T02:06:27.042Z,4.90
2022-08-17T02:09:02.737Z,5.50
2022-08-17T02:11:34.778Z,4.85
2022-08-17T02:14:03.991Z,4.40
2022-08-17T02:16:40.165Z,5.15
2022-08-17T02:19:13.302Z,5.07
2022-08-17T02:24:59.509Z,4.85
2022-08-17T02:27:12.335Z,5.28
2022-08-17T02:29:42.414Z,5.05
2022-08-17T02:32:27.626Z,4.72
2022-08-17T02:35:01.181Z,5.22
2022-08-17T02:37:31.562Z,5.00
2022-08-17T02:40:01.864Z,5.00
2022-08-17T02:42:39.023Z,5.25
2022-08-17T02:45:15.567Z,5.10
2022-08-17T02:47:45.564Z,5.55
2022-08-17T02:50:19.133Z,5.13
2022-08-17T02:52:57.294Z,5.38
2022-08-17T02:55:36.254Z,5.65
2022-08-17T03:00:34.361Z,5.05
2022-08-17T03:03:04.699Z,4.90
2022-08-17T03:05:33.978Z,5.32
2022-08-17T03:08:07.767Z,5.20
2022-08-17T03:10:44.820Z,5.03
2022-08-17T03:13:18.354Z,5.15
2022-08-17T03:15:47.172Z,6.00
2022-08-17T03:18:25.002Z,5.55
2022-08-17T03:20:55.591Z,5.40
2022-08-17T03:23:25.248Z,5.80
2022-08-17T03:25:53.971Z,5.40
2022-08-17T03:28:24.476Z,5.47
2022-08-17T03:30:52.247Z,5.78
2022-08-17T03:33:22.025Z,5.18
2022-08-17T03:35:51.511Z,5.40
2022-08-17T03:38:24.196Z,5.70
2022-08-17T03:40:59.737Z,6.03
2022-08-17T03:43:32.986Z,5.40
2022-08-17T03:46:33.890Z,5.22
2022-08-17T03:49:24.563Z,5.35
2022-08-17T03:52:11.708Z,4.95
2022-08-17T03:54:58.020Z,5.68
2022-08-17T03:57:26.097Z,5.47
2022-08-17T03:59:54.494Z,5.57
2022-08-17T04:02:24.062Z,5.15
2022-08-17T04:04:54.964Z,5.05
2022-08-17T04:07:32.454Z,5.70
2022-08-17T04:10:03.233Z,4.82
2022-08-17T04:12:46.610Z,5.28
2022-08-17T04:15:18.262Z,6.05
2022-08-17T04:17:46.037Z,5.25
2022-08-17T04:20:17.320Z,5.40
2022-08-17T04:23:10.558Z,5.07
2022-08-17T04:25:44.319Z,5.00
2022-08-17T04:28:15.868Z,5.55
2022-08-17T04:30:47.566Z,5.57
2022-08-17T04:33:19.563Z,4.88
2022-08-17T04:35:50.061Z,5.10
2022-08-17T04:38:23.648Z,5.30
2022-08-17T04:41:10.890Z,4.93
2022-08-17T04:43:41.558Z,5.45
2022-08-17T04:46:15.890Z,5.10
2022-08-17T04:48:46.969Z,4.90
2022-08-17T04:51:22.326Z,5.38
2022-08-17T04:54:05.530Z,5.18
2022-08-17T04:56:34.961Z,5.22
2022-08-17T04:59:15.481Z,5.78
2022-08-17T05:01:50.653Z,5.18
2022-08-17T05:04:33.779Z,6.57
2022-08-17T05:07:07.032Z,5.63
2022-08-17T05:09:43.010Z,4.93
2022-08-17T05:12:21.366Z,5.68
2022-08-17T05:14:51.375Z,6.13
2022-08-17T05:17:19.027Z,4.97
2022-08-17T05:19:55.408Z,5.20
2022-08-17T05:22:23.488Z,5.05
2022-08-17T05:24:55.586Z,5.22
2022-08-17T05:27:32.219Z,5.13
2022-08-17T05:30:11.254Z,5.38
2022-08-17T05:33:01.286Z,5.15
2022-08-17T05:35:32.034Z,5.07
2022-08-17T05:38:09.301Z,5.78
2022-08-17T05:43:56.253Z,5.40
2022-08-17T05:46:27.457Z,4.55
2022-08-17T05:49:15.141Z,5.50
2022-08-17T05:52:13.763Z,5.32
2022-08-17T05:55:24.609Z,5.35
2022-08-17T05:58:33.450Z,5.28
2022-08-17T06:01:16.083Z,5.97
2022-08-17T06:04:04.130Z,5.65
2022-08-17T06:07:10.480Z,5.53
2022-08-17T06:10:11.502Z,5.80
2022-08-17T06:12:50.365Z,6.05
2022-08-17T06:15:41.709Z,6.13
2022-08-17T06:18:27.815Z,6.65
2022-08-17T06:21:00.254Z,6.20
2022-08-17T06:23:37.830Z,6.43
2022-08-17T06:26:15.995Z,7.05
2022-08-17T06:28:54.262Z,6.88
2022-08-17T06:31:38.626Z,6.32
2022-08-17T06:34:10.813Z,6.93
2022-08-17T06:37:03.723Z,6.78
2022-08-17T06:39:53.837Z,6.65
2022-08-17T06:43:05.024Z,7.32
2022-08-17T06:46:02.002Z,7.15
2022-08-17T06:48:50.936Z,7.32
2022-08-17T06:51:51.395Z,7.20
2022-08-17T06:54:40.320Z,6.20
2022-08-17T06:57:23.183Z,6.68
2022-08-17T06:59:59.638Z,7.70
2022-08-17T07:03:02.090Z,6.18
2022-08-17T07:05:52.798Z,6.45
2022-08-17T07:08:35.444Z,5.97
2022-08-17T07:11:13.113Z,6.45
2022-08-17T07:14:00.944Z,6.37
2022-08-17T07:16:40.463Z,5.30
2022-08-17T07:19:18.336Z,5.85
2022-08-17T07:21:48.517Z,5.32
2022-08-17T07:24:47.150Z,5.82
2022-08-17T07:27:18.144Z,5.30
2022-08-17T07:30:10.543Z,5.50
2022-08-17T07:33:08.287Z,5.40
2022-08-17T07:35:49.918Z,5.28
2022-08-17T07:38:30.850Z,5.05
2022-08-17T07:41:06.901Z,5.85
2022-08-17T07:43:52.490Z,5.53
2022-08-17T07:46:53.191Z,5.28
2022-08-17T07:49:31.160Z,5.43
2022-08-17T07:52:48.534Z,5.47
2022-08-17T07:54:57.596Z,5.78
2022-08-17T07:57:36.625Z,5.47
2022-08-17T08:00:17.041Z,5.80
2022-08-17T08:03:03.215Z,5.15
2022-08-17T08:05:52.390Z,5.40
2022-08-17T08:08:30.287Z,4.95
2022-08-17T08:11:15.158Z,5.55
2022-08-17T08:13:49.842Z,5.10
2022-08-17T08:16:30.558Z,5.40
2022-08-17T08:19:02.256Z,4.90
2022-08-17T08:21:52.658Z,4.72
2022-08-17T08:24:38.664Z,5.15
2022-08-17T08:27:33.736Z,4.57
2022-08-17T08:30:22.014Z,4.68
2022-08-17T08:33:17.117Z,4.70
2022-08-17T08:35:44.768Z,5.00
2022-08-17T08:38:27.446Z,5.57
2022-08-17T08:41:43.106Z,5.10
2022-08-17T08:45:00.884Z,5.15
2022-08-17T08:47:40.291Z,5.63
2022-08-17T08:50:52.524Z,4.53
2022-08-17T08:53:31.625Z,5.07
2022-08-17T08:56:30.215Z,5.00
2022-08-17T08:59:16.669Z,4.65
2022-08-17T09:01:57.558Z,5.30
2022-08-17T09:05:13.475Z,4.70
2022-08-17T09:08:08.674Z,4.97
2022-08-17T09:11:05.959Z,4.43
2022-08-17T09:13:46.032Z,4.68
2022-08-17T09:16:44.474Z,4.55
2022-08-17T09:19:30.150Z,4.53
2022-08-17T09:22:25.467Z,4.13
2022-08-17T09:24:57.230Z,4.57
2022-08-17T09:27:52.642Z,4.30
2022-08-17T09:30:21.188Z,3.97
2022-08-17T09:33:01.965Z,4.60
2022-08-17T09:35:36.914Z,4.10
2022-08-17T09:38:31.867Z,3.85
2022-08-17T09:44:27.510Z,4.15
2022-08-17T09:47:30.516Z,4.07
2022-08-17T09:50:05.446Z,4.75
2022-08-17T09:52:32.694Z,4.10
2022-08-17T09:55:01.721Z,4.40
2022-08-17T09:58:04.906Z,4.55
2022-08-17T10:00:40.840Z,4.60
2022-08-17T10:03:34.901Z,3.85
2022-08-17T10:06:24.406Z,3.97
2022-08-17T10:08:52.575Z,4.20
2022-08-17T10:11:52.152Z,4.55
2022-08-17T10:14:38.003Z,4.57
2022-08-17T10:17:33.156Z,4.65
2022-08-17T10:20:16.316Z,4.30
2022-08-17T10:23:05.105Z,4.50
2022-08-17T10:26:13.790Z,4.45
2022-08-17T10:28:50.656Z,4.90
2022-08-17T10:31:40.064Z,4.72
2022-08-17T10:34:27.804Z,4.85
2022-08-17T10:37:01.128Z,4.65
2022-08-17T10:42:42.605Z,5.13
2022-08-17T10:46:27.732Z,5.30
2022-08-17T10:48:39.532Z,4.82
2022-08-17T10:51:09.251Z,5.22
2022-08-17T10:53:38.961Z,5.15
2022-08-17T10:56:13.563Z,4.93
2022-08-17T11:01:33.926Z,4.93
2022-08-17T11:04:09.919Z,5.30
2022-08-17T11:06:42.511Z,5.07
2022-08-17T11:09:46.433Z,5.00
2022-08-17T11:12:38.682Z,4.03
2022-08-17T11:15:17.539Z,3.95
2022-08-17T11:17:54.337Z,4.00
2022-08-17T11:20:52.642Z,4.07
2022-08-17T11:23:35.310Z,3.92
2022-08-17T11:26:17.549Z,3.95
2022-08-17T11:28:52.471Z,3.92
2022-08-17T11:31:38.924Z,3.85
2022-08-17T11:34:31.671Z,3.90
2022-08-17T11:37:09.657Z,3.78
2022-08-17T11:40:01.804Z,4.25
2022-08-17T11:42:40.022Z,4.00
2022-08-17T11:45:41.138Z,4.00
2022-08-17T11:49:01.427Z,3.80
2022-08-17T11:51:56.559Z,4.32
2022-08-17T11:54:34.460Z,4.20
2022-08-17T11:57:25.179Z,4.75
2022-08-17T11:59:55.442Z,5.60
2022-08-17T12:02:31.717Z,4.70
2022-08-17T12:05:17.394Z,4.60
2022-08-17T12:07:54.782Z,4.68
2022-08-17T12:10:33.548Z,4.50
2022-08-17T12:13:06.840Z,4.45
2022-08-17T12:15:49.431Z,4.00
2022-08-17T12:18:42.149Z,4.97
2022-08-17T12:21:16.568Z,5.07
2022-08-17T12:23:52.251Z,3.90
2022-08-17T12:26:23.106Z,3.85
2022-08-17T12:29:01.131Z,4.53
2022-08-17T12:31:39.182Z,4.25
2022-08-17T12:34:32.974Z,4.93
2022-08-17T12:37:07.820Z,4.40
2022-08-17T12:39:35.246Z,4.40
2022-08-17T12:42:04.595Z,4.47
2022-08-17T12:44:46.119Z,5.30
2022-08-17T12:47:23.151Z,5.15
2022-08-17T12:49:55.367Z,4.60
2022-08-17T12:52:28.992Z,4.20
2022-08-17T12:55:12.446Z,4.30
2022-08-17T13:00:34.566Z,4.32
2022-08-17T13:03:03.319Z,4.40
2022-08-17T13:05:37.737Z,4.60
2022-08-17T13:08:20.124Z,3.97
2022-08-17T13:11:03.191Z,4.50
2022-08-17T13:13:33.720Z,4.50
2022-08-17T13:16:25.718Z,4.38
2022-08-17T13:18:53.187Z,4.45
2022-08-17T13:21:22.080Z,4.47
2022-08-17T13:24:04.907Z,4.00
2022-08-17T13:26:40.245Z,4.03
2022-08-17T13:29:19.328Z,4.50
2022-08-17T13:31:56.402Z,4.47
2022-08-17T13:34:48.948Z,3.92
2022-08-17T13:37:33.590Z,4.15
2022-08-17T13:40:10.054Z,4.35
2022-08-17T13:43:07.142Z,3.80
2022-08-17T13:45:38.751Z,3.92
2022-08-17T13:48:17.798Z,4.10
2022-08-17T13:50:59.183Z,3.72
2022-08-17T13:53:50.932Z,4.05
2022-08-17T13:56:37.690Z,4.43
2022-08-17T13:59:15.913Z,4.55
2022-08-17T14:01:43.177Z,4.38
2022-08-17T14:04:24.042Z,3.67
2022-08-17T14:07:13.034Z,4.50
2022-08-17T14:09:49.248Z,4.03
2022-08-17T14:12:25.203Z,4.30
2022-08-17T14:14:57.222Z,4.10
2022-08-17T14:17:25.975Z,3.42
2022-08-17T14:19:53.699Z,3.75
2022-08-17T14:22:44.994Z,3.80
2022-08-17T14:28:14.795Z,3.92
2022-08-17T14:30:42.306Z,3.63
2022-08-17T14:33:18.686Z,3.60
2022-08-17T14:35:47.227Z,3.80
2022-08-17T14:38:17.683Z,4.05
2022-08-17T14:40:47.975Z,3.88
2022-08-17T14:43:15.861Z,3.60
2022-08-17T14:45:53.425Z,3.50
2022-08-17T14:48:22.300Z,3.60
2022-08-17T14:50:52.412Z,3.67
2022-08-17T14:53:24.977Z,3.65
2022-08-17T14:55:52.708Z,4.07
2022-08-17T14:58:20.257Z,3.92
2022-08-17T15:00:50.905Z,3.70
2022-08-17T15:03:25.133Z,3.60
2022-08-17T15:05:55.100Z,3.70
2022-08-17T15:08:24.727Z,3.85
2022-08-17T15:10:54.285Z,3.90
2022-08-17T15:13:25.301Z,3.75
2022-08-17T15:15:54.705Z,4.10
2022-08-17T15:18:25.110Z,3.38
2022-08-17T15:20:56.023Z,3.72
2022-08-17T15:23:26.626Z,3.20
2022-08-17T15:25:54.472Z,3.38
2022-08-17T15:28:25.024Z,3.45
2022-08-17T15:30:53.335Z,3.80
2022-08-17T15:33:29.090Z,3.40
2022-08-17T15:36:04.120Z,3.90
2022-08-17T15:38:36.720Z,3.42
2022-08-17T15:41:07.198Z,3.83
2022-08-17T15:43:36.635Z,3.58
2022-08-17T15:46:15.035Z,3.25
2022-08-17T15:48:47.352Z,3.58
2022-08-17T15:51:23.993Z,3.70
2022-08-17T15:54:18.575Z,3.38
2022-08-17T15:56:49.338Z,3.25
2022-08-17T15:59:16.874Z,3.47
2022-08-17T16:03:13.202Z,2.95
2022-08-17T16:04:44.173Z,3.55
2022-08-17T16:07:17.760Z,3.95
2022-08-17T16:09:45.312Z,3.40
2022-08-17T16:12:19.560Z,3.20
2022-08-17T16:14:56.773Z,3.88
2022-08-17T16:17:38.700Z,3.55
2022-08-17T16:20:20.887Z,3.88
2022-08-17T16:22:52.488Z,3.47
2022-08-17T16:25:52.486Z,3.50
2022-08-17T16:28:14.125Z,3.60
2022-08-17T16:30:46.035Z,3.13
2022-08-17T16:33:13.552Z,4.00
2022-08-17T16:35:43.120Z,3.42
2022-08-17T16:38:11.106Z,3.90
2022-08-17T16:40:39.172Z,3.70
2022-08-17T16:43:12.997Z,3.50
2022-08-17T16:45:51.851Z,3.97
2022-08-17T16:48:19.842Z,3.75
2022-08-17T16:51:03.064Z,3.50
2022-08-17T16:53:34.417Z,3.95
2022-08-17T16:56:01.566Z,3.90
2022-08-17T16:58:30.134Z,4.15
2022-08-17T17:00:59.985Z,3.83
2022-08-17T17:06:24.428Z,3.78
2022-08-17T17:09:10.674Z,4.07
2022-08-17T17:14:34.317Z,3.50
2022-08-17T17:17:16.116Z,4.35
2022-08-17T17:19:50.998Z,4.13
2022-08-17T17:22:27.655Z,3.88
2022-08-17T17:25:06.920Z,4.28
2022-08-17T17:27:56.082Z,4.15
2022-08-17T17:30:42.644Z,3.67
2022-08-17T17:33:29.766Z,3.70
2022-08-17T17:36:12.113Z,3.70
2022-08-17T17:38:49.986Z,4.22
2022-08-17T17:41:29.460Z,3.50
2022-08-17T17:44:08.483Z,3.87
2022-08-17T17:46:45.158Z,3.92
2022-08-17T17:49:23.565Z,3.78
2022-08-17T17:52:11.004Z,3.70
2022-08-17T17:55:06.199Z,4.00
2022-08-17T17:57:51.584Z,3.80
2022-08-17T18:00:58.550Z,4.10
2022-08-17T18:04:17.037Z,4.10
2022-08-17T18:07:29.612Z,4.30
2022-08-17T18:10:19.787Z,3.92
2022-08-17T18:13:15.131Z,4.18
2022-08-17T18:15:52.131Z,4.63
2022-08-17T18:18:31.104Z,4.70
2022-08-17T18:21:07.167Z,4.40
2022-08-17T18:23:34.654Z,4.30
2022-08-17T18:26:02.430Z,4.40
2022-08-17T18:28:34.087Z,4.53
2022-08-17T18:31:11.795Z,4.78
2022-08-17T18:33:42.507Z,4.80
2022-08-17T18:36:11.835Z,4.93
2022-08-17T18:38:47.709Z,4.50
2022-08-17T18:41:26.223Z,4.32
2022-08-17T18:44:03.669Z,4.03
2022-08-17T18:46:36.574Z,4.88
2022-08-17T18:49:10.523Z,4.57
2022-08-17T18:51:42.610Z,4.93
2022-08-17T18:54:21.618Z,4.93
2022-08-17T18:56:56.936Z,4.82
2022-08-17T18:59:29.227Z,4.80
2022-08-17T19:01:59.174Z,4.38
2022-08-17T19:04:43.035Z,4.40
2022-08-17T19:07:23.523Z,4.95
2022-08-17T19:10:04.142Z,4.70
2022-08-17T19:12:40.038Z,4.40
2022-08-17T19:15:10.500Z,4.95
2022-08-17T19:17:48.276Z,5.03
2022-08-17T19:20:24.261Z,4.95
2022-08-17T19:22:58.065Z,4.60
2022-08-17T19:25:34.221Z,4.70
2022-08-17T19:28:21.882Z,5.18
2022-08-17T19:31:04.578Z,4.75
2022-08-17T19:33:32.298Z,5.45
2022-08-17T19:36:06.663Z,4.97
2022-08-17T19:38:54.521Z,4.75
2022-08-17T19:41:42.908Z,4.53
2022-08-17T19:44:37.649Z,5.00
2022-08-17T19:47:10.372Z,4.88
2022-08-17T19:49:49.771Z,4.45
2022-08-17T19:52:46.470Z,5.30
2022-08-17T19:55:21.007Z,4.57
2022-08-17T19:58:07.878Z,4.73
2022-08-17T20:00:52.235Z,5.88
2022-08-17T20:03:38.073Z,4.68
2022-08-17T20:06:12.906Z,4.63
2022-08-17T20:08:46.802Z,5.50
2022-08-17T20:11:20.813Z,6.50
2022-08-17T20:14:00.157Z,6.65
2022-08-17T20:16:27.627Z,6.53
2022-08-17T20:19:12.278Z,6.20
2022-08-17T20:21:49.813Z,6.00
2022-08-17T20:24:31.620Z,5.60
2022-08-17T20:27:04.073Z,5.90
2022-08-17T20:29:39.803Z,5.45
2022-08-17T20:32:18.103Z,5.78
2022-08-17T20:34:47.625Z,5.22
2022-08-17T20:37:17.229Z,5.38
2022-08-17T20:39:50.007Z,5.07
2022-08-17T20:42:20.393Z,5.40
2022-08-17T20:44:50.857Z,5.13
2022-08-17T20:47:27.165Z,5.43
2022-08-17T20:50:06.966Z,5.20
2022-08-17T20:52:45.417Z,5.40
2022-08-17T20:55:51.360Z,5.22
2022-08-17T20:58:30.931Z,5.80
2022-08-17T21:00:58.938Z,4.78
2022-08-17T21:03:47.551Z,5.55
2022-08-17T21:06:19.325Z,5.47
2022-08-17T21:08:54.697Z,5.50
2022-08-17T21:11:57.073Z,5.53
2022-08-17T21:14:38.026Z,5.57
2022-08-17T21:17:23.358Z,5.57
2022-08-17T21:20:13.061Z,5.72
2022-08-17T21:22:45.991Z,5.53
2022-08-17T21:25:48.188Z,5.53
2022-08-17T21:29:00.840Z,4.97
2022-08-17T21:31:54.955Z,5.67
2022-08-17T21:34:27.534Z,5.18
2022-08-17T21:36:56.688Z,5.22
2022-08-17T21:39:39.683Z,5.75
2022-08-17T21:42:08.180Z,5.70
2022-08-17T21:44:42.299Z,6.00
2022-08-17T21:47:29.260Z,5.82
2022-08-17T21:50:19.401Z,6.15
2022-08-17T21:52:53.904Z,5.32
2022-08-17T21:55:29.453Z,6.07
2022-08-17T21:58:15.091Z,5.50
2022-08-17T22:00:45.880Z,5.70
2022-08-17T22:03:26.081Z,6.07
2022-08-17T22:05:53.476Z,5.60
2022-08-17T22:08:25.133Z,5.45
2022-08-17T22:11:01.600Z,6.03
2022-08-17T22:13:29.604Z,5.50
2022-08-17T22:16:28.981Z,5.80
2022-08-17T22:18:58.890Z,5.38
2022-08-17T22:21:27.299Z,5.22
2022-08-17T22:24:21.706Z,5.20
2022-08-17T22:27:11.116Z,5.00
2022-08-17T22:29:45.246Z,5.32
2022-08-17T22:32:35.307Z,5.18
2022-08-17T22:35:35.875Z,5.28
2022-08-17T22:38:18.643Z,5.35
2022-08-17T22:40:56.092Z,5.10
2022-08-17T22:43:26.762Z,5.53
2022-08-17T22:45:59.197Z,5.25
2022-08-17T22:48:31.120Z,4.80
2022-08-17T22:51:13.978Z,4.88
2022-08-17T22:54:11.201Z,4.43
2022-08-17T22:57:05.483Z,4.55
2022-08-17T22:59:51.734Z,4.07
2022-08-17T23:02:29.618Z,4.43
2022-08-17T23:05:10.061Z,4.82
2022-08-17T23:07:37.701Z,4.75
2022-08-17T23:10:07.656Z,3.83
2022-08-17T23:12:39.820Z,4.07
2022-08-17T23:15:17.669Z,3.90
2022-08-17T23:17:45.702Z,3.75
2022-08-17T23:20:17.578Z,4.13
2022-08-17T23:22:51.794Z,3.95
2022-08-17T23:25:31.820Z,3.83
2022-08-17T23:28:02.767Z,4.40
2022-08-17T23:30:32.640Z,3.55
2022-08-17T23:33:04.118Z,3.70
2022-08-17T23:35:39.249Z,3.90
2022-08-17T23:38:14.948Z,3.90
2022-08-17T23:40:42.574Z,3.60
2022-08-17T23:43:24.169Z,4.13
2022-08-17T23:45:54.396Z,4.15
2022-08-17T23:48:35.072Z,4.38
2022-08-17T23:51:14.030Z,3.63
2022-08-17T23:53:47.234Z,3.72
2022-08-17T23:56:24.246Z,3.70
2022-08-17T23:58:53.401Z,3.97
